createdAt,value
2023-05-13T00:00:38.447Z,3.83
2023-05-13T00:03:05.311Z,3.88
2023-05-13T00:05:32.097Z,3.72
2023-05-13T00:08:01.951Z,5.05
2023-05-13T00:10:29.186Z,3.58
2023-05-13T00:12:55.881Z,3.85
2023-05-13T00:15:22.703Z,3.88
2023-05-13T00:17:49.663Z,3.67
2023-05-13T00:20:16.528Z,4.18
2023-05-13T00:22:43.242Z,5.05
2023-05-13T00:25:10.078Z,3.30
2023-05-13T00:27:36.926Z,3.92
2023-05-13T00:30:05.552Z,3.13
2023-05-13T00:32:32.389Z,3.30
2023-05-13T00:34:59.141Z,3.15
2023-05-13T00:37:25.973Z,3.38
2023-05-13T00:39:52.758Z,2.92
2023-05-13T00:42:19.541Z,2.92
2023-05-13T00:44:46.595Z,3.38
2023-05-13T00:47:13.542Z,3.45
2023-05-13T00:49:40.465Z,2.65
2023-05-13T00:52:07.308Z,3.08
2023-05-13T00:54:34.173Z,3.45
2023-05-13T00:57:01.023Z,2.97
2023-05-13T00:59:31.171Z,3.33
2023-05-13T01:02:27.352Z,2.92
2023-05-13T01:05:15.654Z,2.47
2023-05-13T01:08:09.964Z,2.67
2023-05-13T01:11:14.171Z,2.72
2023-05-13T01:13:46.798Z,2.97
2023-05-13T01:16:23.876Z,2.70
2023-05-13T01:18:58.651Z,2.83
2023-05-13T01:21:29.367Z,2.67
2023-05-13T01:23:56.320Z,2.42
2023-05-13T01:26:25.692Z,2.83
2023-05-13T01:28:52.676Z,2.95
2023-05-13T01:31:22.516Z,2.92
2023-05-13T01:33:50.198Z,3.08
2023-05-13T01:36:17.950Z,3.15
2023-05-13T01:38:45.712Z,2.88
2023-05-13T01:41:12.642Z,3.13
2023-05-13T01:43:39.417Z,3.08
2023-05-13T01:46:12.858Z,2.97
2023-05-13T01:48:39.674Z,2.70
2023-05-13T01:51:06.939Z,3.20
2023-05-13T01:53:33.679Z,2.85
2023-05-13T01:56:00.424Z,3.00
2023-05-13T01:58:27.177Z,2.95
2023-05-13T02:00:53.883Z,2.97
2023-05-13T02:03:21.374Z,2.88
2023-05-13T02:05:48.904Z,2.65
2023-05-13T02:08:15.716Z,2.88
2023-05-13T02:10:42.468Z,2.90
2023-05-13T02:13:09.253Z,3.00
2023-05-13T02:15:37.714Z,3.13
2023-05-13T02:18:04.566Z,2.90
2023-05-13T02:20:31.364Z,2.88
2023-05-13T02:22:58.079Z,2.97
2023-05-13T02:25:24.759Z,3.35
2023-05-13T02:27:51.558Z,3.13
2023-05-13T02:30:18.620Z,3.28
2023-05-13T02:32:45.484Z,3.15
2023-05-13T02:35:12.282Z,3.30
2023-05-13T02:37:39.066Z,4.05
2023-05-13T02:40:06.810Z,3.22
2023-05-13T02:42:33.509Z,3.42
2023-05-13T02:45:00.226Z,3.15
2023-05-13T02:47:27.055Z,3.28
2023-05-13T02:49:56.549Z,3.35
2023-05-13T02:52:23.534Z,3.28
2023-05-13T02:54:50.347Z,3.47
2023-05-13T02:57:17.215Z,3.70
2023-05-13T02:59:45.353Z,3.58
2023-05-13T03:02:12.171Z,3.55
2023-05-13T03:04:41.151Z,3.90
2023-05-13T03:07:08.127Z,4.03
2023-05-13T03:09:35.092Z,4.22
2023-05-13T03:12:01.919Z,3.67
2023-05-13T03:14:28.648Z,3.72
2023-05-13T03:16:55.347Z,3.85
2023-05-13T03:19:22.106Z,3.83
2023-05-13T03:21:48.897Z,3.80
2023-05-13T03:24:15.668Z,4.10
2023-05-13T03:26:42.471Z,4.05
2023-05-13T03:29:09.210Z,4.78
2023-05-13T03:31:36.978Z,4.15
2023-05-13T03:34:03.852Z,4.97
2023-05-13T03:36:30.675Z,4.90
2023-05-13T03:38:57.374Z,4.93
2023-05-13T03:41:24.174Z,4.38
2023-05-13T03:43:52.207Z,4.78
2023-05-13T03:46:19.098Z,4.72
2023-05-13T03:48:45.939Z,5.00
2023-05-13T03:51:12.841Z,4.68
2023-05-13T03:53:41.095Z,4.75
2023-05-13T03:56:07.852Z,4.88
2023-05-13T03:58:34.696Z,5.55
2023-05-13T04:01:01.626Z,5.70
2023-05-13T04:03:28.393Z,5.22
2023-05-13T04:05:56.240Z,5.22
2023-05-13T04:08:22.955Z,5.82
2023-05-13T04:10:49.958Z,4.93
2023-05-13T04:13:16.794Z,5.63
2023-05-13T04:15:43.532Z,5.70
2023-05-13T04:18:10.618Z,5.68
2023-05-13T04:20:41.209Z,5.45
2023-05-13T04:23:08.248Z,6.03
2023-05-13T04:25:38.048Z,5.60
2023-05-13T04:28:05.201Z,5.88
2023-05-13T04:30:32.026Z,5.60
2023-05-13T04:32:58.883Z,6.00
2023-05-13T04:35:26.726Z,6.45
2023-05-13T04:37:53.488Z,6.47
2023-05-13T04:40:20.641Z,6.47
2023-05-13T04:42:54.326Z,6.63
2023-05-13T04:45:21.348Z,6.55
2023-05-13T04:47:48.578Z,6.25
2023-05-13T04:50:15.609Z,6.15
2023-05-13T04:52:43.095Z,6.38
2023-05-13T04:55:12.285Z,7.25
2023-05-13T04:57:39.512Z,6.07
2023-05-13T05:00:09.323Z,6.32
2023-05-13T05:02:36.130Z,5.95
2023-05-13T05:05:03.533Z,6.38
2023-05-13T05:07:30.765Z,5.80
2023-05-13T05:09:57.884Z,5.88
2023-05-13T05:12:24.806Z,6.43
2023-05-13T05:14:51.685Z,6.18
2023-05-13T05:17:18.685Z,5.45
2023-05-13T05:19:45.538Z,6.45
2023-05-13T05:22:12.311Z,6.22
2023-05-13T05:24:39.057Z,6.13
2023-05-13T05:27:06.149Z,6.05
2023-05-13T05:29:32.941Z,6.15
2023-05-13T05:31:59.826Z,6.07
2023-05-13T05:34:26.768Z,6.05
2023-05-13T05:36:54.960Z,5.70
2023-05-13T05:39:23.002Z,6.72
2023-05-13T05:41:49.804Z,6.18
2023-05-13T05:44:16.491Z,5.80
2023-05-13T05:46:45.285Z,6.22
2023-05-13T05:49:11.990Z,6.18
2023-05-13T05:51:38.797Z,6.20
2023-05-13T05:54:05.649Z,5.63
2023-05-13T05:56:32.390Z,6.10
2023-05-13T05:58:59.093Z,5.63
2023-05-13T06:01:26.239Z,6.38
2023-05-13T06:03:54.904Z,6.10
2023-05-13T06:06:21.867Z,5.75
2023-05-13T06:08:48.940Z,6.30
2023-05-13T06:11:16.055Z,5.78
2023-05-13T06:13:44.078Z,5.63
2023-05-13T06:16:10.915Z,5.45
2023-05-13T06:18:38.122Z,5.68
2023-05-13T06:21:07.337Z,5.78
2023-05-13T06:23:34.231Z,5.47
2023-05-13T06:26:01.139Z,5.63
2023-05-13T06:28:27.889Z,5.55
2023-05-13T06:30:54.918Z,5.30
2023-05-13T06:33:21.781Z,5.70
2023-05-13T06:35:51.670Z,5.53
2023-05-13T06:38:18.396Z,5.07
2023-05-13T06:40:45.623Z,5.50
2023-05-13T06:43:14.649Z,5.85
2023-05-13T06:45:41.523Z,6.47
2023-05-13T06:48:10.977Z,5.28
2023-05-13T06:50:37.805Z,5.82
2023-05-13T06:53:04.518Z,5.70
2023-05-13T06:55:31.502Z,5.32
2023-05-13T06:57:58.189Z,6.15
2023-05-13T07:00:25.115Z,5.55
2023-05-13T07:02:51.952Z,6.22
2023-05-13T07:05:18.668Z,6.30
2023-05-13T07:07:45.883Z,6.57
2023-05-13T07:10:12.750Z,5.80
2023-05-13T07:12:39.617Z,5.75
2023-05-13T07:15:07.312Z,5.38
2023-05-13T07:17:34.145Z,5.35
2023-05-13T07:20:01.059Z,6.55
2023-05-13T07:22:28.477Z,6.15
2023-05-13T07:24:56.380Z,5.50
2023-05-13T07:27:23.394Z,5.88
2023-05-13T07:29:50.077Z,5.90
2023-05-13T07:32:16.913Z,5.30
2023-05-13T07:34:46.775Z,5.53
2023-05-13T07:37:16.045Z,5.28
2023-05-13T07:39:42.922Z,5.30
2023-05-13T07:42:10.044Z,5.10
2023-05-13T07:44:36.723Z,4.90
2023-05-13T07:47:03.517Z,5.20
2023-05-13T07:49:30.394Z,4.30
2023-05-13T07:51:57.253Z,4.47
2023-05-13T07:54:24.095Z,5.28
2023-05-13T07:56:50.941Z,4.75
2023-05-13T07:59:18.636Z,4.25
2023-05-13T08:01:46.599Z,5.93
2023-05-13T08:04:13.524Z,4.20
2023-05-13T08:06:40.345Z,4.07
2023-05-13T08:09:11.731Z,3.88
2023-05-13T08:11:38.707Z,4.10
2023-05-13T08:14:05.953Z,4.03
2023-05-13T08:16:36.369Z,3.58
2023-05-13T08:19:03.855Z,3.58
2023-05-13T08:21:31.686Z,3.95
2023-05-13T08:23:58.533Z,3.90
2023-05-13T08:26:25.591Z,3.38
2023-05-13T08:28:54.698Z,3.58
2023-05-13T08:31:24.221Z,3.10
2023-05-13T08:33:53.183Z,4.72
2023-05-13T08:36:26.033Z,3.42
2023-05-13T08:38:53.074Z,3.80
2023-05-13T08:41:21.991Z,3.72
2023-05-13T08:43:52.207Z,3.92
2023-05-13T08:46:19.592Z,3.35
2023-05-13T08:48:47.842Z,4.03
2023-05-13T08:51:14.877Z,4.35
2023-05-13T08:53:44.340Z,4.55
2023-05-13T08:56:11.796Z,4.07
2023-05-13T08:58:38.523Z,3.88
2023-05-13T09:01:07.412Z,3.90
2023-05-13T09:03:41.220Z,3.22
2023-05-13T09:06:08.895Z,3.72
2023-05-13T09:08:36.842Z,4.25
2023-05-13T09:11:04.134Z,3.92
2023-05-13T09:13:30.930Z,3.80
2023-05-13T09:15:57.987Z,3.75
2023-05-13T09:18:32.004Z,4.88
2023-05-13T09:21:24.849Z,3.45
2023-05-13T09:24:08.652Z,3.95
2023-05-13T09:26:38.033Z,3.58
2023-05-13T09:29:21.397Z,3.40
2023-05-13T09:31:58.119Z,4.90
2023-05-13T09:34:35.660Z,4.13
2023-05-13T09:37:08.198Z,4.30
2023-05-13T09:39:41.304Z,3.35
2023-05-13T09:42:19.366Z,3.75
2023-05-13T09:44:47.622Z,4.18
2023-05-13T09:47:16.469Z,4.10
2023-05-13T09:49:54.958Z,4.32
2023-05-13T09:52:22.444Z,3.80
2023-05-13T09:54:49.286Z,3.45
2023-05-13T09:57:16.180Z,4.45
2023-05-13T09:59:42.942Z,4.00
2023-05-13T10:02:12.224Z,3.70
2023-05-13T10:04:39.765Z,3.70
2023-05-13T10:07:08.144Z,3.85
2023-05-13T10:09:37.868Z,3.45
2023-05-13T10:12:08.594Z,4.05
2023-05-13T10:14:39.800Z,4.50
2023-05-13T10:17:08.002Z,3.33
2023-05-13T10:19:36.215Z,3.78
2023-05-13T10:22:04.126Z,3.95
2023-05-13T10:24:32.010Z,3.40
2023-05-13T10:27:02.132Z,4.22
2023-05-13T10:29:29.944Z,4.60
2023-05-13T10:31:58.836Z,3.92
2023-05-13T10:34:27.885Z,4.70
2023-05-13T10:37:29.137Z,4.60
2023-05-13T10:40:42.649Z,4.63
2023-05-13T10:43:29.380Z,3.90
2023-05-13T10:46:02.246Z,4.45
2023-05-13T10:49:01.611Z,4.38
2023-05-13T10:51:28.540Z,3.95
2023-05-13T10:53:58.732Z,4.05
2023-05-13T10:56:28.456Z,4.35
2023-05-13T10:59:06.480Z,4.57
2023-05-13T11:01:44.390Z,4.32
2023-05-13T11:04:20.476Z,3.65
2023-05-13T11:06:50.709Z,3.95
2023-05-13T11:09:20.548Z,3.58
2023-05-13T11:12:09.114Z,5.15
2023-05-13T11:14:35.974Z,3.72
2023-05-13T11:17:04.272Z,4.10
2023-05-13T11:19:39.358Z,3.92
2023-05-13T11:22:19.950Z,4.03
2023-05-13T11:25:05.539Z,4.72
2023-05-13T11:27:42.881Z,4.35
2023-05-13T11:30:25.836Z,4.68
2023-05-13T11:33:01.576Z,3.83
2023-05-13T11:35:34.340Z,3.53
2023-05-13T11:38:04.154Z,3.47
2023-05-13T11:40:38.757Z,3.35
2023-05-13T11:43:06.542Z,3.67
2023-05-13T11:45:38.994Z,4.75
2023-05-13T11:48:24.018Z,3.90
2023-05-13T11:50:54.557Z,3.88
2023-05-13T11:53:22.449Z,3.40
2023-05-13T11:55:49.760Z,3.03
2023-05-13T11:58:16.554Z,3.15
2023-05-13T12:00:46.311Z,3.60
2023-05-13T12:03:15.958Z,3.80
2023-05-13T12:05:44.823Z,2.90
2023-05-13T12:08:11.853Z,3.47
2023-05-13T12:10:45.434Z,3.83
2023-05-13T12:13:12.877Z,3.20
2023-05-13T12:15:40.370Z,3.30
2023-05-13T12:18:08.096Z,3.50
2023-05-13T12:20:35.658Z,3.25
2023-05-13T12:23:03.156Z,3.22
2023-05-13T12:25:46.604Z,3.00
2023-05-13T12:28:24.254Z,3.05
2023-05-13T12:30:56.457Z,3.25
2023-05-13T12:33:33.032Z,3.08
2023-05-13T12:36:27.689Z,2.72
2023-05-13T12:38:59.552Z,2.92
2023-05-13T12:41:42.585Z,2.80
2023-05-13T12:44:13.383Z,3.40
2023-05-13T12:46:54.218Z,2.92
2023-05-13T12:49:21.029Z,3.53
2023-05-13T12:51:47.916Z,2.65
2023-05-13T12:54:14.846Z,2.67
2023-05-13T12:56:41.608Z,2.70
2023-05-13T12:59:09.426Z,3.50
2023-05-13T13:01:37.247Z,2.40
2023-05-13T13:04:04.202Z,3.08
2023-05-13T13:06:34.156Z,2.80
2023-05-13T13:09:00.913Z,2.67
2023-05-13T13:11:29.907Z,2.72
2023-05-13T13:13:56.609Z,2.60
2023-05-13T13:16:24.100Z,2.53
2023-05-13T13:18:53.189Z,2.60
2023-05-13T13:21:23.941Z,2.65
2023-05-13T13:23:50.801Z,3.10
2023-05-13T13:26:17.572Z,3.03
2023-05-13T13:28:44.298Z,3.00
2023-05-13T13:31:12.033Z,2.20
2023-05-13T13:33:38.741Z,2.20
2023-05-13T13:36:05.957Z,2.65
2023-05-13T13:38:32.708Z,2.92
2023-05-13T13:40:59.389Z,3.10
2023-05-13T13:43:26.202Z,2.33
2023-05-13T13:45:53.086Z,2.13
2023-05-13T13:48:19.887Z,2.13
2023-05-13T13:50:48.068Z,2.40
2023-05-13T13:53:15.643Z,2.70
2023-05-13T13:55:42.438Z,2.55
2023-05-13T13:58:09.195Z,2.35
2023-05-13T14:00:37.015Z,2.30
2023-05-13T14:03:03.950Z,3.00
2023-05-13T14:05:30.790Z,2.55
2023-05-13T14:07:57.544Z,2.42
2023-05-13T14:10:24.329Z,2.90
2023-05-13T14:12:51.028Z,2.60
2023-05-13T14:15:17.862Z,2.15
2023-05-13T14:17:44.696Z,2.70
2023-05-13T14:20:12.009Z,2.20
2023-05-13T14:22:40.218Z,2.80
2023-05-13T14:25:07.319Z,2.70
2023-05-13T14:27:36.355Z,2.78
2023-05-13T14:30:05.057Z,2.45
2023-05-13T14:32:32.264Z,2.35
2023-05-13T14:35:02.138Z,2.90
2023-05-13T14:37:28.887Z,2.70
2023-05-13T14:39:56.230Z,2.40
2023-05-13T14:42:23.002Z,2.35
2023-05-13T14:44:49.711Z,2.85
2023-05-13T14:47:16.536Z,2.35
2023-05-13T14:49:43.335Z,2.50
2023-05-13T14:52:10.261Z,2.78
2023-05-13T14:54:38.062Z,2.38
2023-05-13T14:57:07.775Z,2.40
2023-05-13T14:59:34.895Z,2.70
2023-05-13T15:02:02.729Z,2.90
2023-05-13T15:04:29.761Z,2.60
2023-05-13T15:06:56.811Z,2.95
2023-05-13T15:09:23.609Z,2.85
2023-05-13T15:11:50.345Z,2.95
2023-05-13T15:14:17.963Z,3.15
2023-05-13T15:16:46.024Z,3.08
2023-05-13T15:19:12.849Z,2.45
2023-05-13T15:21:39.798Z,2.50
2023-05-13T15:24:06.823Z,2.30
2023-05-13T15:26:34.489Z,2.60
2023-05-13T15:29:01.548Z,2.72
2023-05-13T15:31:31.292Z,2.80
2023-05-13T15:33:58.074Z,2.30
2023-05-13T15:36:24.862Z,2.50
2023-05-13T15:38:51.644Z,2.83
2023-05-13T15:41:18.342Z,3.03
2023-05-13T15:43:45.206Z,2.30
2023-05-13T15:46:12.079Z,2.30
2023-05-13T15:48:38.841Z,2.70
2023-05-13T15:51:06.851Z,2.67
2023-05-13T15:53:33.679Z,2.97
2023-05-13T15:56:00.455Z,2.58
2023-05-13T15:58:27.227Z,3.53
2023-05-13T16:00:53.945Z,3.50
2023-05-13T16:03:20.759Z,3.13
2023-05-13T16:05:47.887Z,2.70
2023-05-13T16:08:14.661Z,3.35
2023-05-13T16:10:41.931Z,2.97
2023-05-13T16:13:08.818Z,2.80
2023-05-13T16:15:35.757Z,2.65
2023-05-13T16:18:05.045Z,2.85
2023-05-13T16:20:31.862Z,2.50
2023-05-13T16:22:58.669Z,2.80
2023-05-13T16:25:25.905Z,2.35
2023-05-13T16:27:52.699Z,2.83
2023-05-13T16:30:19.458Z,2.40
2023-05-13T16:32:48.918Z,2.70
2023-05-13T16:35:15.876Z,3.50
2023-05-13T16:37:42.603Z,2.55
2023-05-13T16:40:10.468Z,2.50
2023-05-13T16:42:37.273Z,2.28
2023-05-13T16:45:04.802Z,2.78
2023-05-13T16:47:31.542Z,2.70
2023-05-13T16:49:58.377Z,2.97
2023-05-13T16:52:26.393Z,2.40
2023-05-13T16:54:56.660Z,2.17
2023-05-13T16:57:25.185Z,2.70
2023-05-13T16:59:51.952Z,2.95
2023-05-13T17:02:18.819Z,2.10
2023-05-13T17:04:45.614Z,2.70
2023-05-13T17:07:12.345Z,2.47
2023-05-13T17:09:39.117Z,3.00
2023-05-13T17:12:08.459Z,2.53
2023-05-13T17:14:35.239Z,2.97
2023-05-13T17:17:03.130Z,2.30
2023-05-13T17:19:30.475Z,2.90
2023-05-13T17:21:57.220Z,2.42
2023-05-13T17:24:23.955Z,2.28
2023-05-13T17:26:50.736Z,2.58
2023-05-13T17:29:17.608Z,2.67
2023-05-13T17:31:44.500Z,2.20
2023-05-13T17:34:12.490Z,2.53
2023-05-13T17:36:39.295Z,2.20
2023-05-13T17:39:06.056Z,2.13
2023-05-13T17:41:32.794Z,2.47
2023-05-13T17:43:59.502Z,3.65
2023-05-13T17:46:26.272Z,2.83
2023-05-13T17:48:53.168Z,2.70
2023-05-13T17:51:20.091Z,2.70
2023-05-13T17:53:46.925Z,2.78
2023-05-13T17:56:13.833Z,2.45
2023-05-13T17:58:40.540Z,2.53
2023-05-13T18:01:07.306Z,2.75
2023-05-13T18:03:35.278Z,2.63
2023-05-13T18:06:02.251Z,2.80
2023-05-13T18:08:29.118Z,3.17
2023-05-13T18:10:55.949Z,2.88
2023-05-13T18:13:22.708Z,3.25
2023-05-13T18:15:49.593Z,3.10
2023-05-13T18:18:17.598Z,3.53
2023-05-13T18:20:44.476Z,3.28
2023-05-13T18:23:11.480Z,3.33
2023-05-13T18:25:45.391Z,2.70
2023-05-13T18:28:19.082Z,3.28
2023-05-13T18:30:45.881Z,3.65
2023-05-13T18:33:12.660Z,3.10
2023-05-13T18:35:40.644Z,3.20
2023-05-13T18:38:07.432Z,2.88
2023-05-13T18:40:34.197Z,3.20
2023-05-13T18:43:00.947Z,2.90
2023-05-13T18:45:27.654Z,2.83
2023-05-13T18:47:54.888Z,3.17
2023-05-13T18:50:21.994Z,3.05
2023-05-13T18:52:49.098Z,2.55
2023-05-13T18:55:17.817Z,2.72
2023-05-13T18:57:44.522Z,3.00
2023-05-13T19:00:11.878Z,2.88
2023-05-13T19:02:38.938Z,3.63
2023-05-13T19:05:06.937Z,3.75
2023-05-13T19:07:33.854Z,4.53
2023-05-13T19:10:00.646Z,4.53
2023-05-13T19:12:28.024Z,4.20
2023-05-13T19:14:54.971Z,3.75
2023-05-13T19:17:21.838Z,3.92
2023-05-13T19:19:48.738Z,3.70
2023-05-13T19:22:15.798Z,3.65
2023-05-13T19:24:42.524Z,3.53
2023-05-13T19:27:09.390Z,3.60
2023-05-13T19:29:36.214Z,3.75
2023-05-13T19:32:02.944Z,4.68
2023-05-13T19:34:29.745Z,3.60
2023-05-13T19:36:56.598Z,3.80
2023-05-13T19:39:23.562Z,4.65
2023-05-13T19:41:50.346Z,4.03
2023-05-13T19:44:17.090Z,4.72
2023-05-13T19:46:43.914Z,4.55
2023-05-13T19:49:10.644Z,4.70
2023-05-13T19:51:38.663Z,4.78
2023-05-13T19:54:13.024Z,5.10
2023-05-13T19:56:41.420Z,4.63
2023-05-13T19:59:09.030Z,4.78
2023-05-13T20:01:37.885Z,4.90
2023-05-13T20:04:04.998Z,5.00
2023-05-13T20:06:32.677Z,6.63
2023-05-13T20:09:00.955Z,6.38
2023-05-13T20:11:28.061Z,5.68
2023-05-13T20:13:55.042Z,4.63
2023-05-13T20:16:22.721Z,4.97
2023-05-13T20:19:10.036Z,4.95
2023-05-13T20:21:37.238Z,4.93
2023-05-13T20:24:07.520Z,4.88
2023-05-13T20:26:38.422Z,4.97
2023-05-13T20:29:05.518Z,4.60
2023-05-13T20:31:32.621Z,5.05
2023-05-13T20:34:04.830Z,4.80
2023-05-13T20:36:36.667Z,4.82
2023-05-13T20:39:03.541Z,4.35
2023-05-13T20:41:53.887Z,4.68
2023-05-13T20:44:21.609Z,4.43
2023-05-13T20:46:52.495Z,6.35
2023-05-13T20:49:19.435Z,4.90
2023-05-13T20:51:57.715Z,5.47
2023-05-13T20:54:34.011Z,4.85
2023-05-13T20:57:02.987Z,5.55
2023-05-13T20:59:31.233Z,4.90
2023-05-13T21:01:58.602Z,5.18
2023-05-13T21:04:25.551Z,5.47
2023-05-13T21:06:53.372Z,5.30
2023-05-13T21:09:20.328Z,7.25
2023-05-13T21:11:47.169Z,7.88
2023-05-13T21:14:14.126Z,6.28
2023-05-13T21:16:41.037Z,5.13
2023-05-13T21:19:23.958Z,5.35
2023-05-13T21:22:05.284Z,5.57
2023-05-13T21:24:32.146Z,5.30
2023-05-13T21:26:58.992Z,5.05
2023-05-13T21:29:30.250Z,6.55
2023-05-13T21:31:57.419Z,5.85
2023-05-13T21:34:24.237Z,4.97
2023-05-13T21:36:52.174Z,5.30
2023-05-13T21:39:19.044Z,5.20
2023-05-13T21:41:47.813Z,5.70
2023-05-13T21:44:16.912Z,6.03
2023-05-13T21:46:43.688Z,5.35
2023-05-13T21:49:11.868Z,6.25
2023-05-13T21:51:39.183Z,5.43
2023-05-13T21:54:05.948Z,5.63
2023-05-13T21:56:32.707Z,6.28
2023-05-13T21:59:00.979Z,5.68
2023-05-13T22:01:27.935Z,5.57
2023-05-13T22:03:55.303Z,7.72
2023-05-13T22:06:22.468Z,7.47
2023-05-13T22:08:49.274Z,7.00
2023-05-13T22:11:16.446Z,5.88
2023-05-13T22:13:43.432Z,5.13
2023-05-13T22:16:10.357Z,5.47
2023-05-13T22:18:37.379Z,5.88
2023-05-13T22:21:05.595Z,6.30
2023-05-13T22:23:32.318Z,6.18
2023-05-13T22:25:59.295Z,6.57
2023-05-13T22:28:26.104Z,6.22
2023-05-13T22:30:53.051Z,6.00
2023-05-13T22:33:19.898Z,6.65
2023-05-13T22:35:47.186Z,6.00
2023-05-13T22:38:15.207Z,6.55
2023-05-13T22:40:42.206Z,6.45
2023-05-13T22:43:08.945Z,6.68
2023-05-13T22:45:39.396Z,5.80
2023-05-13T22:48:06.702Z,5.95
2023-05-13T22:50:33.644Z,6.43
2023-05-13T22:53:00.470Z,6.38
2023-05-13T22:55:27.259Z,6.70
2023-05-13T22:57:54.215Z,6.70
2023-05-13T23:00:21.313Z,7.55
2023-05-13T23:02:48.383Z,7.05
2023-05-13T23:05:15.476Z,6.68
2023-05-13T23:07:42.212Z,8.27
2023-05-13T23:10:09.623Z,6.97
2023-05-13T23:12:36.512Z,8.55
2023-05-13T23:15:04.079Z,8.25
2023-05-13T23:17:30.947Z,8.13
2023-05-13T23:19:57.724Z,8.57
2023-05-13T23:22:25.751Z,8.40
2023-05-13T23:24:52.485Z,8.35
2023-05-13T23:27:19.337Z,8.23
2023-05-13T23:29:46.177Z,7.85
2023-05-13T23:32:13.067Z,8.38
2023-05-13T23:34:39.794Z,7.82
2023-05-13T23:37:06.532Z,7.57
2023-05-13T23:39:33.382Z,9.15
2023-05-13T23:42:00.175Z,7.28
2023-05-13T23:44:26.985Z,7.75
2023-05-13T23:46:53.766Z,6.43
2023-05-13T23:49:20.513Z,7.38
2023-05-13T23:51:49.707Z,7.60
2023-05-13T23:54:19.048Z,6.78
2023-05-13T23:56:45.960Z,7.63
2023-05-13T23:59:12.758Z,7.18
